KBIH/BIH METAR and TAF weather

Enter ICAO airport designator
Station Type Date Time Source
KBIH METAR 2020/05/30 05:56 UTC NOAA

KBIH 300556Z AUTO 13018G28KT 10SM CLR 27/02 A2988 RMK AO2 PK WND 13028/0549 SLP053 T02720017 10344 20272 58001


Station Type Date Time Source
KBIH Decoded METAR 2020/05/30 05:56 UTC NOAA

BISHOP AIRPORT, CA, United States (KBIH) 37-22N 118-22W 1253M
May 30, 2020 - 01:56 AM EDT / 2020.05.30 0556 UTC
Wind: from the SE (130 degrees) at 21 MPH (18 KT) gusting to 32 MPH (28 KT):0
Visibility: 10 mile(s):0
Sky conditions: clear
Temperature: 81.0 F (27.2 C)
Dew Point: 35.1 F (1.7 C)
Relative Humidity: 19%
Pressure (altimeter): 29.88 in. Hg (1011 hPa)
Pressure tendency: 0.00 inches (0.1 hPa) lower than three hours ago
ob: KBIH 300556Z AUTO 13018G28KT 10SM CLR 27/02 A2988 RMK AO2 PK WND 13028/0549 SLP053 T02720017 10344 20272 58001
cycle: 6

Station Type Date Time Source
KBIH TAF 2020/05/30 06:22 UTC NOAA

TAF KBIH 300520Z 3006/3106 15012G20KT P6SM BKN180
FM301800 17022G35KT P6SM FEW180
FM302000 20026G38KT P6SM SCT180
FM310400 35012G20KT P6SM FEW200

Example: see airport list